sensor_id;sensor_type;location;lat;lon;timestamp;P1;durP1;ratioP1;P2;durP2;ratioP2
14698;SDS011;7439;50.804;4.602;2022-07-19T00:00:00;4.87;;;3.80;;
14698;SDS011;7439;50.804;4.602;2022-07-19T00:02:30;4.20;;;3.80;;
14698;SDS011;7439;50.804;4.602;2022-07-19T00:04:57;4.97;;;4.47;;
14698;SDS011;7439;50.804;4.602;2022-07-19T00:07:24;4.87;;;4.30;;
14698;SDS011;7439;50.804;4.602;2022-07-19T00:09:51;4.30;;;3.90;;
14698;SDS011;7439;50.804;4.602;2022-07-19T00:12:18;5.57;;;3.63;;
14698;SDS011;7439;50.804;4.602;2022-07-19T00:14:46;4.80;;;4.33;;
14698;SDS011;7439;50.804;4.602;2022-07-19T00:17:13;4.40;;;4.00;;
14698;SDS011;7439;50.804;4.602;2022-07-19T00:19:40;4.00;;;3.70;;
14698;SDS011;7439;50.804;4.602;2022-07-19T00:22:08;5.37;;;3.73;;
14698;SDS011;7439;50.804;4.602;2022-07-19T00:24:35;6.30;;;4.23;;
14698;SDS011;7439;50.804;4.602;2022-07-19T00:27:02;4.33;;;3.80;;
14698;SDS011;7439;50.804;4.602;2022-07-19T00:29:29;4.70;;;4.30;;
14698;SDS011;7439;50.804;4.602;2022-07-19T00:31:57;5.17;;;4.67;;
14698;SDS011;7439;50.804;4.602;2022-07-19T00:34:24;7.17;;;3.87;;
14698;SDS011;7439;50.804;4.602;2022-07-19T00:36:51;4.17;;;3.87;;
14698;SDS011;7439;50.804;4.602;2022-07-19T00:39:18;4.90;;;4.50;;
14698;SDS011;7439;50.804;4.602;2022-07-19T00:41:45;4.93;;;3.60;;
14698;SDS011;7439;50.804;4.602;2022-07-19T00:44:13;5.43;;;4.27;;
14698;SDS011;7439;50.804;4.602;2022-07-19T00:46:40;4.53;;;4.10;;
14698;SDS011;7439;50.804;4.602;2022-07-19T00:49:08;4.70;;;4.30;;
14698;SDS011;7439;50.804;4.602;2022-07-19T00:51:35;4.37;;;3.97;;
14698;SDS011;7439;50.804;4.602;2022-07-19T00:54:06;4.57;;;4.17;;
14698;SDS011;7439;50.804;4.602;2022-07-19T00:56:35;5.30;;;4.00;;
14698;SDS011;7439;50.804;4.602;2022-07-19T00:59:04;5.37;;;4.20;;
14698;SDS011;7439;50.804;4.602;2022-07-19T01:01:31;4.87;;;4.47;;
14698;SDS011;7439;50.804;4.602;2022-07-19T01:03:59;3.97;;;3.60;;
14698;SDS011;7439;50.804;4.602;2022-07-19T01:06:27;4.40;;;3.77;;
14698;SDS011;7439;50.804;4.602;2022-07-19T01:08:54;3.93;;;3.63;;
14698;SDS011;7439;50.804;4.602;2022-07-19T01:11:21;5.93;;;4.57;;
14698;SDS011;7439;50.804;4.602;2022-07-19T01:13:48;4.93;;;4.03;;
14698;SDS011;7439;50.804;4.602;2022-07-19T01:16:15;4.70;;;3.77;;
14698;SDS011;7439;50.804;4.602;2022-07-19T01:18:43;4.43;;;4.00;;
14698;SDS011;7439;50.804;4.602;2022-07-19T01:21:18;4.40;;;4.00;;
14698;SDS011;7439;50.804;4.602;2022-07-19T01:23:46;3.80;;;3.50;;
14698;SDS011;7439;50.804;4.602;2022-07-19T01:26:13;7.23;;;4.37;;
14698;SDS011;7439;50.804;4.602;2022-07-19T01:28:40;4.73;;;4.33;;
14698;SDS011;7439;50.804;4.602;2022-07-19T01:31:07;5.33;;;3.70;;
14698;SDS011;7439;50.804;4.602;2022-07-19T01:33:37;4.53;;;4.10;;
14698;SDS011;7439;50.804;4.602;2022-07-19T01:36:05;4.77;;;4.23;;
14698;SDS011;7439;50.804;4.602;2022-07-19T01:38:35;5.33;;;4.60;;
14698;SDS011;7439;50.804;4.602;2022-07-19T01:41:02;4.40;;;4.00;;
14698;SDS011;7439;50.804;4.602;2022-07-19T01:43:29;4.73;;;4.23;;
14698;SDS011;7439;50.804;4.602;2022-07-19T01:45:56;4.83;;;4.43;;
14698;SDS011;7439;50.804;4.602;2022-07-19T01:48:24;5.23;;;4.27;;
14698;SDS011;7439;50.804;4.602;2022-07-19T01:50:51;8.10;;;4.80;;
14698;SDS011;7439;50.804;4.602;2022-07-19T01:53:18;4.90;;;4.50;;
14698;SDS011;7439;50.804;4.602;2022-07-19T01:55:47;5.20;;;4.70;;
14698;SDS011;7439;50.804;4.602;2022-07-19T01:58:14;4.97;;;4.47;;
14698;SDS011;7439;50.804;4.602;2022-07-19T02:00:41;4.33;;;4.03;;
14698;SDS011;7439;50.804;4.602;2022-07-19T02:03:08;5.03;;;4.63;;
14698;SDS011;7439;50.804;4.602;2022-07-19T02:05:35;5.50;;;4.03;;
14698;SDS011;7439;50.804;4.602;2022-07-19T02:08:03;4.67;;;4.20;;
14698;SDS011;7439;50.804;4.602;2022-07-19T02:10:31;4.77;;;4.00;;
14698;SDS011;7439;50.804;4.602;2022-07-19T02:12:59;4.93;;;4.50;;
14698;SDS011;7439;50.804;4.602;2022-07-19T02:15:26;5.20;;;4.70;;
14698;SDS011;7439;50.804;4.602;2022-07-19T02:17:53;4.77;;;3.83;;
14698;SDS011;7439;50.804;4.602;2022-07-19T02:20:21;5.13;;;4.63;;
14698;SDS011;7439;50.804;4.602;2022-07-19T02:22:48;7.47;;;4.87;;
14698;SDS011;7439;50.804;4.602;2022-07-19T02:25:15;6.20;;;4.87;;
14698;SDS011;7439;50.804;4.602;2022-07-19T02:27:42;5.47;;;4.63;;
14698;SDS011;7439;50.804;4.602;2022-07-19T02:30:11;6.07;;;4.50;;
14698;SDS011;7439;50.804;4.602;2022-07-19T02:32:39;5.07;;;4.57;;
14698;SDS011;7439;50.804;4.602;2022-07-19T02:35:07;6.30;;;4.33;;
14698;SDS011;7439;50.804;4.602;2022-07-19T02:37:37;5.93;;;4.40;;
14698;SDS011;7439;50.804;4.602;2022-07-19T02:40:05;5.00;;;3.93;;
14698;SDS011;7439;50.804;4.602;2022-07-19T02:42:33;5.23;;;4.70;;
14698;SDS011;7439;50.804;4.602;2022-07-19T02:45:00;4.13;;;3.73;;
14698;SDS011;7439;50.804;4.602;2022-07-19T02:47:29;6.10;;;4.47;;
14698;SDS011;7439;50.804;4.602;2022-07-19T02:49:56;5.43;;;4.93;;
14698;SDS011;7439;50.804;4.602;2022-07-19T02:52:23;5.37;;;4.73;;
14698;SDS011;7439;50.804;4.602;2022-07-19T02:54:50;4.37;;;4.07;;
14698;SDS011;7439;50.804;4.602;2022-07-19T02:57:17;7.03;;;4.83;;
14698;SDS011;7439;50.804;4.602;2022-07-19T02:59:44;4.33;;;4.03;;
14698;SDS011;7439;50.804;4.602;2022-07-19T03:02:11;4.93;;;4.37;;
14698;SDS011;7439;50.804;4.602;2022-07-19T03:04:39;5.50;;;4.77;;
14698;SDS011;7439;50.804;4.602;2022-07-19T03:07:06;4.40;;;4.00;;
14698;SDS011;7439;50.804;4.602;2022-07-19T03:09:33;4.83;;;4.33;;
14698;SDS011;7439;50.804;4.602;2022-07-19T03:12:01;4.93;;;4.40;;
14698;SDS011;7439;50.804;4.602;2022-07-19T03:14:28;4.20;;;3.80;;
14698;SDS011;7439;50.804;4.602;2022-07-19T03:16:55;5.33;;;4.23;;
14698;SDS011;7439;50.804;4.602;2022-07-19T03:19:22;4.87;;;4.23;;
14698;SDS011;7439;50.804;4.602;2022-07-19T03:21:52;5.17;;;4.23;;
14698;SDS011;7439;50.804;4.602;2022-07-19T03:24:20;4.57;;;4.17;;
14698;SDS011;7439;50.804;4.602;2022-07-19T03:26:47;6.13;;;4.60;;
14698;SDS011;7439;50.804;4.602;2022-07-19T03:29:14;5.33;;;4.20;;
14698;SDS011;7439;50.804;4.602;2022-07-19T03:31:41;5.47;;;4.20;;
14698;SDS011;7439;50.804;4.602;2022-07-19T03:34:08;5.13;;;4.20;;
14698;SDS011;7439;50.804;4.602;2022-07-19T03:36:35;4.70;;;4.03;;
14698;SDS011;7439;50.804;4.602;2022-07-19T03:39:03;5.20;;;4.70;;
14698;SDS011;7439;50.804;4.602;2022-07-19T03:41:31;7.53;;;4.47;;
14698;SDS011;7439;50.804;4.602;2022-07-19T03:43:57;5.07;;;4.60;;
14698;SDS011;7439;50.804;4.602;2022-07-19T03:46:25;5.40;;;4.70;;
14698;SDS011;7439;50.804;4.602;2022-07-19T03:48:53;5.17;;;4.67;;
14698;SDS011;7439;50.804;4.602;2022-07-19T03:51:20;4.43;;;4.03;;
14698;SDS011;7439;50.804;4.602;2022-07-19T03:53:47;5.20;;;4.33;;
14698;SDS011;7439;50.804;4.602;2022-07-19T03:56:16;4.80;;;4.30;;
14698;SDS011;7439;50.804;4.602;2022-07-19T03:58:46;5.23;;;4.73;;
14698;SDS011;7439;50.804;4.602;2022-07-19T04:01:13;6.20;;;5.20;;
14698;SDS011;7439;50.804;4.602;2022-07-19T04:03:40;10.40;;;5.03;;
14698;SDS011;7439;50.804;4.602;2022-07-19T04:06:08;5.17;;;4.67;;
14698;SDS011;7439;50.804;4.602;2022-07-19T04:08:36;5.50;;;4.37;;
14698;SDS011;7439;50.804;4.602;2022-07-19T04:11:04;4.87;;;4.30;;
14698;SDS011;7439;50.804;4.602;2022-07-19T04:13:33;6.40;;;4.87;;
14698;SDS011;7439;50.804;4.602;2022-07-19T04:16:00;4.73;;;4.33;;
14698;SDS011;7439;50.804;4.602;2022-07-19T04:18:28;6.70;;;5.13;;
14698;SDS011;7439;50.804;4.602;2022-07-19T04:20:55;5.27;;;4.77;;
14698;SDS011;7439;50.804;4.602;2022-07-19T04:23:22;5.13;;;4.73;;
14698;SDS011;7439;50.804;4.602;2022-07-19T04:25:49;5.07;;;4.67;;
14698;SDS011;7439;50.804;4.602;2022-07-19T04:28:16;5.40;;;4.90;;
14698;SDS011;7439;50.804;4.602;2022-07-19T04:30:44;5.70;;;4.23;;
14698;SDS011;7439;50.804;4.602;2022-07-19T04:33:12;5.17;;;4.60;;
14698;SDS011;7439;50.804;4.602;2022-07-19T04:35:41;5.07;;;4.57;;
14698;SDS011;7439;50.804;4.602;2022-07-19T04:38:08;6.40;;;4.77;;
14698;SDS011;7439;50.804;4.602;2022-07-19T04:40:35;5.17;;;4.67;;
14698;SDS011;7439;50.804;4.602;2022-07-19T04:43:02;6.07;;;4.97;;
14698;SDS011;7439;50.804;4.602;2022-07-19T04:45:29;6.10;;;4.73;;
14698;SDS011;7439;50.804;4.602;2022-07-19T04:47:57;5.30;;;4.70;;
14698;SDS011;7439;50.804;4.602;2022-07-19T04:50:24;5.17;;;4.67;;
14698;SDS011;7439;50.804;4.602;2022-07-19T04:52:51;7.83;;;5.03;;
14698;SDS011;7439;50.804;4.602;2022-07-19T04:55:18;5.50;;;4.97;;
14698;SDS011;7439;50.804;4.602;2022-07-19T04:57:45;4.53;;;4.13;;
14698;SDS011;7439;50.804;4.602;2022-07-19T05:00:12;4.83;;;4.43;;
14698;SDS011;7439;50.804;4.602;2022-07-19T05:02:39;6.00;;;4.70;;
14698;SDS011;7439;50.804;4.602;2022-07-19T05:05:08;5.17;;;4.23;;
14698;SDS011;7439;50.804;4.602;2022-07-19T05:07:35;5.07;;;4.57;;
14698;SDS011;7439;50.804;4.602;2022-07-19T05:10:03;5.63;;;4.60;;
14698;SDS011;7439;50.804;4.602;2022-07-19T05:12:31;6.53;;;4.40;;
14698;SDS011;7439;50.804;4.602;2022-07-19T05:14:58;7.53;;;4.67;;
14698;SDS011;7439;50.804;4.602;2022-07-19T05:17:25;4.90;;;4.50;;
14698;SDS011;7439;50.804;4.602;2022-07-19T05:19:52;4.80;;;4.40;;
14698;SDS011;7439;50.804;4.602;2022-07-19T05:22:21;4.47;;;4.07;;
14698;SDS011;7439;50.804;4.602;2022-07-19T05:24:50;5.70;;;4.00;;
14698;SDS011;7439;50.804;4.602;2022-07-19T05:27:18;4.40;;;4.00;;
14698;SDS011;7439;50.804;4.602;2022-07-19T05:29:45;7.73;;;4.67;;
14698;SDS011;7439;50.804;4.602;2022-07-19T05:32:12;4.57;;;4.17;;
14698;SDS011;7439;50.804;4.602;2022-07-19T05:34:39;6.00;;;4.27;;
14698;SDS011;7439;50.804;4.602;2022-07-19T05:37:06;4.60;;;4.30;;
14698;SDS011;7439;50.804;4.602;2022-07-19T05:39:34;5.47;;;4.07;;
14698;SDS011;7439;50.804;4.602;2022-07-19T05:42:01;4.43;;;4.03;;
14698;SDS011;7439;50.804;4.602;2022-07-19T05:44:28;9.03;;;4.23;;
14698;SDS011;7439;50.804;4.602;2022-07-19T05:46:55;4.97;;;4.17;;
14698;SDS011;7439;50.804;4.602;2022-07-19T05:49:22;6.97;;;4.10;;
14698;SDS011;7439;50.804;4.602;2022-07-19T05:51:49;6.33;;;3.60;;
14698;SDS011;7439;50.804;4.602;2022-07-19T05:54:16;4.20;;;3.83;;
14698;SDS011;7439;50.804;4.602;2022-07-19T05:56:47;5.00;;;4.07;;
14698;SDS011;7439;50.804;4.602;2022-07-19T05:59:14;4.73;;;3.87;;
14698;SDS011;7439;50.804;4.602;2022-07-19T06:01:41;6.17;;;4.10;;
14698;SDS011;7439;50.804;4.602;2022-07-19T06:04:08;6.17;;;4.03;;
14698;SDS011;7439;50.804;4.602;2022-07-19T06:06:35;4.43;;;3.90;;
14698;SDS011;7439;50.804;4.602;2022-07-19T06:09:03;4.77;;;4.30;;
14698;SDS011;7439;50.804;4.602;2022-07-19T06:11:33;4.50;;;4.00;;
14698;SDS011;7439;50.804;4.602;2022-07-19T06:14:01;4.47;;;3.67;;
14698;SDS011;7439;50.804;4.602;2022-07-19T06:16:30;4.00;;;3.63;;
14698;SDS011;7439;50.804;4.602;2022-07-19T06:18:57;4.20;;;3.80;;
14698;SDS011;7439;50.804;4.602;2022-07-19T06:21:24;6.30;;;3.97;;
14698;SDS011;7439;50.804;4.602;2022-07-19T06:23:51;3.87;;;3.57;;
14698;SDS011;7439;50.804;4.602;2022-07-19T06:26:18;4.00;;;3.50;;
14698;SDS011;7439;50.804;4.602;2022-07-19T06:28:45;3.83;;;3.53;;
14698;SDS011;7439;50.804;4.602;2022-07-19T06:31:14;4.87;;;3.70;;
14698;SDS011;7439;50.804;4.602;2022-07-19T06:33:42;5.70;;;3.53;;
14698;SDS011;7439;50.804;4.602;2022-07-19T06:36:11;4.50;;;3.70;;
14698;SDS011;7439;50.804;4.602;2022-07-19T06:38:38;6.73;;;3.90;;
14698;SDS011;7439;50.804;4.602;2022-07-19T06:41:06;4.07;;;3.67;;
14698;SDS011;7439;50.804;4.602;2022-07-19T06:43:34;4.07;;;3.77;;
14698;SDS011;7439;50.804;4.602;2022-07-19T06:46:01;3.63;;;3.10;;
14698;SDS011;7439;50.804;4.602;2022-07-19T06:48:30;4.23;;;3.60;;
14698;SDS011;7439;50.804;4.602;2022-07-19T06:50:57;3.50;;;3.20;;
14698;SDS011;7439;50.804;4.602;2022-07-19T06:53:25;3.10;;;2.90;;
14698;SDS011;7439;50.804;4.602;2022-07-19T06:55:52;5.53;;;3.57;;
14698;SDS011;7439;50.804;4.602;2022-07-19T06:58:19;3.60;;;3.30;;
14698;SDS011;7439;50.804;4.602;2022-07-19T07:00:46;4.30;;;3.40;;
14698;SDS011;7439;50.804;4.602;2022-07-19T07:03:14;5.50;;;3.47;;
14698;SDS011;7439;50.804;4.602;2022-07-19T07:05:44;6.53;;;3.40;;
14698;SDS011;7439;50.804;4.602;2022-07-19T07:08:11;7.53;;;3.60;;
14698;SDS011;7439;50.804;4.602;2022-07-19T07:10:38;3.90;;;3.33;;
14698;SDS011;7439;50.804;4.602;2022-07-19T07:13:05;6.50;;;3.20;;
14698;SDS011;7439;50.804;4.602;2022-07-19T07:15:32;4.47;;;2.87;;
14698;SDS011;7439;50.804;4.602;2022-07-19T07:18:00;3.10;;;2.90;;
14698;SDS011;7439;50.804;4.602;2022-07-19T07:20:28;8.30;;;3.10;;
14698;SDS011;7439;50.804;4.602;2022-07-19T07:23:00;3.63;;;2.83;;
14698;SDS011;7439;50.804;4.602;2022-07-19T07:25:27;4.47;;;3.37;;
14698;SDS011;7439;50.804;4.602;2022-07-19T07:27:54;4.03;;;3.03;;
14698;SDS011;7439;50.804;4.602;2022-07-19T07:30:22;4.47;;;3.10;;
14698;SDS011;7439;50.804;4.602;2022-07-19T07:32:49;6.93;;;2.97;;
14698;SDS011;7439;50.804;4.602;2022-07-19T07:35:16;3.40;;;2.53;;
14698;SDS011;7439;50.804;4.602;2022-07-19T07:37:44;3.30;;;2.50;;
14698;SDS011;7439;50.804;4.602;2022-07-19T07:40:12;2.83;;;2.60;;
14698;SDS011;7439;50.804;4.602;2022-07-19T07:42:39;3.23;;;2.70;;
14698;SDS011;7439;50.804;4.602;2022-07-19T07:45:06;2.43;;;2.23;;
14698;SDS011;7439;50.804;4.602;2022-07-19T07:47:35;4.60;;;2.80;;
14698;SDS011;7439;50.804;4.602;2022-07-19T07:50:02;5.80;;;2.57;;
14698;SDS011;7439;50.804;4.602;2022-07-19T07:52:31;2.90;;;2.40;;
14698;SDS011;7439;50.804;4.602;2022-07-19T07:54:58;4.90;;;2.47;;
14698;SDS011;7439;50.804;4.602;2022-07-19T07:57:27;5.83;;;2.57;;
14698;SDS011;7439;50.804;4.602;2022-07-19T07:59:54;3.53;;;2.60;;
14698;SDS011;7439;50.804;4.602;2022-07-19T08:02:21;5.27;;;2.90;;
14698;SDS011;7439;50.804;4.602;2022-07-19T08:04:48;2.50;;;2.30;;
14698;SDS011;7439;50.804;4.602;2022-07-19T08:07:16;3.40;;;2.23;;
14698;SDS011;7439;50.804;4.602;2022-07-19T08:09:43;4.07;;;2.40;;
14698;SDS011;7439;50.804;4.602;2022-07-19T08:12:10;4.30;;;2.50;;
14698;SDS011;7439;50.804;4.602;2022-07-19T08:14:38;3.83;;;2.60;;
14698;SDS011;7439;50.804;4.602;2022-07-19T08:17:05;4.00;;;2.53;;
14698;SDS011;7439;50.804;4.602;2022-07-19T08:19:33;3.57;;;2.53;;
14698;SDS011;7439;50.804;4.602;2022-07-19T08:22:00;4.40;;;2.87;;
14698;SDS011;7439;50.804;4.602;2022-07-19T08:24:27;3.30;;;2.50;;
14698;SDS011;7439;50.804;4.602;2022-07-19T08:26:54;3.27;;;2.33;;
14698;SDS011;7439;50.804;4.602;2022-07-19T08:29:21;2.77;;;2.07;;
14698;SDS011;7439;50.804;4.602;2022-07-19T08:31:50;5.90;;;2.43;;
14698;SDS011;7439;50.804;4.602;2022-07-19T08:34:17;4.40;;;2.50;;
14698;SDS011;7439;50.804;4.602;2022-07-19T08:36:44;5.63;;;2.33;;
14698;SDS011;7439;50.804;4.602;2022-07-19T08:39:11;3.27;;;2.50;;
14698;SDS011;7439;50.804;4.602;2022-07-19T08:41:38;3.87;;;2.27;;
14698;SDS011;7439;50.804;4.602;2022-07-19T08:44:08;5.10;;;2.20;;
14698;SDS011;7439;50.804;4.602;2022-07-19T08:46:38;4.27;;;2.57;;
14698;SDS011;7439;50.804;4.602;2022-07-19T08:49:07;3.60;;;2.70;;
14698;SDS011;7439;50.804;4.602;2022-07-19T08:51:35;6.10;;;3.50;;
14698;SDS011;7439;50.804;4.602;2022-07-19T08:54:03;5.50;;;2.67;;
14698;SDS011;7439;50.804;4.602;2022-07-19T08:56:30;2.97;;;2.50;;
14698;SDS011;7439;50.804;4.602;2022-07-19T08:59:14;5.83;;;2.40;;
14698;SDS011;7439;50.804;4.602;2022-07-19T09:01:41;8.13;;;2.30;;
14698;SDS011;7439;50.804;4.602;2022-07-19T09:04:11;2.97;;;2.53;;
14698;SDS011;7439;50.804;4.602;2022-07-19T09:06:40;3.90;;;2.30;;
14698;SDS011;7439;50.804;4.602;2022-07-19T09:09:10;5.77;;;2.80;;
14698;SDS011;7439;50.804;4.602;2022-07-19T09:11:39;4.97;;;2.57;;
14698;SDS011;7439;50.804;4.602;2022-07-19T09:14:14;3.80;;;2.60;;
14698;SDS011;7439;50.804;4.602;2022-07-19T09:16:52;4.80;;;2.50;;
14698;SDS011;7439;50.804;4.602;2022-07-19T09:19:23;4.80;;;2.55;;
14698;SDS011;7439;50.804;4.602;2022-07-19T09:21:52;2.92;;;2.38;;
14698;SDS011;7439;50.804;4.602;2022-07-19T09:24:20;5.53;;;2.65;;
14698;SDS011;7439;50.804;4.602;2022-07-19T09:26:57;4.75;;;2.50;;
14698;SDS011;7439;50.804;4.602;2022-07-19T09:29:27;2.83;;;2.13;;
14698;SDS011;7439;50.804;4.602;2022-07-19T09:32:02;4.32;;;2.33;;
14698;SDS011;7439;50.804;4.602;2022-07-19T09:34:32;2.60;;;2.20;;
14698;SDS011;7439;50.804;4.602;2022-07-19T09:37:10;2.67;;;2.38;;
14698;SDS011;7439;50.804;4.602;2022-07-19T09:39:39;2.97;;;2.67;;
14698;SDS011;7439;50.804;4.602;2022-07-19T09:42:10;4.57;;;2.25;;
14698;SDS011;7439;50.804;4.602;2022-07-19T09:44:37;4.55;;;2.45;;
14698;SDS011;7439;50.804;4.602;2022-07-19T09:47:05;7.15;;;2.58;;
14698;SDS011;7439;50.804;4.602;2022-07-19T09:49:33;5.05;;;2.22;;
14698;SDS011;7439;50.804;4.602;2022-07-19T09:52:00;7.38;;;2.50;;
14698;SDS011;7439;50.804;4.602;2022-07-19T09:54:30;11.18;;;3.05;;
14698;SDS011;7439;50.804;4.602;2022-07-19T09:56:58;4.45;;;2.47;;
14698;SDS011;7439;50.804;4.602;2022-07-19T09:59:26;4.80;;;2.50;;
14698;SDS011;7439;50.804;4.602;2022-07-19T10:01:54;2.95;;;2.28;;
14698;SDS011;7439;50.804;4.602;2022-07-19T10:04:25;3.55;;;2.50;;
14698;SDS011;7439;50.804;4.602;2022-07-19T10:06:53;3.40;;;2.25;;
14698;SDS011;7439;50.804;4.602;2022-07-19T10:09:21;3.70;;;2.30;;
14698;SDS011;7439;50.804;4.602;2022-07-19T10:11:51;4.90;;;2.42;;
14698;SDS011;7439;50.804;4.602;2022-07-19T10:14:19;4.50;;;2.42;;
14698;SDS011;7439;50.804;4.602;2022-07-19T10:17:01;4.28;;;2.10;;
14698;SDS011;7439;50.804;4.602;2022-07-19T10:19:37;4.00;;;2.25;;
14698;SDS011;7439;50.804;4.602;2022-07-19T10:22:08;4.30;;;2.30;;
14698;SDS011;7439;50.804;4.602;2022-07-19T10:24:46;2.78;;;2.10;;
14698;SDS011;7439;50.804;4.602;2022-07-19T10:27:16;4.68;;;2.35;;
14698;SDS011;7439;50.804;4.602;2022-07-19T10:29:45;3.63;;;2.10;;
14698;SDS011;7439;50.804;4.602;2022-07-19T10:32:13;5.60;;;2.45;;
14698;SDS011;7439;50.804;4.602;2022-07-19T10:34:41;3.00;;;2.70;;
14698;SDS011;7439;50.804;4.602;2022-07-19T10:37:12;4.85;;;2.30;;
14698;SDS011;7439;50.804;4.602;2022-07-19T10:39:40;4.82;;;2.67;;
14698;SDS011;7439;50.804;4.602;2022-07-19T10:42:12;4.88;;;2.08;;
14698;SDS011;7439;50.804;4.602;2022-07-19T10:50:49;5.22;;;2.47;;
14698;SDS011;7439;50.804;4.602;2022-07-19T10:56:37;6.32;;;2.65;;
14698;SDS011;7439;50.804;4.602;2022-07-19T10:59:06;3.42;;;2.20;;
14698;SDS011;7439;50.804;4.602;2022-07-19T11:01:34;3.38;;;2.00;;
14698;SDS011;7439;50.804;4.602;2022-07-19T11:07:09;7.05;;;2.38;;
14698;SDS011;7439;50.804;4.602;2022-07-19T11:09:45;2.40;;;2.20;;
14698;SDS011;7439;50.804;4.602;2022-07-19T11:12:28;2.45;;;2.13;;
14698;SDS011;7439;50.804;4.602;2022-07-19T11:14:57;2.45;;;2.03;;
14698;SDS011;7439;50.804;4.602;2022-07-19T11:17:24;3.83;;;1.88;;
14698;SDS011;7439;50.804;4.602;2022-07-19T11:19:58;2.63;;;2.42;;
14698;SDS011;7439;50.804;4.602;2022-07-19T11:22:38;5.63;;;2.67;;
14698;SDS011;7439;50.804;4.602;2022-07-19T11:25:08;4.18;;;2.30;;
14698;SDS011;7439;50.804;4.602;2022-07-19T11:27:39;2.33;;;2.13;;
14698;SDS011;7439;50.804;4.602;2022-07-19T11:30:08;5.75;;;2.38;;
14698;SDS011;7439;50.804;4.602;2022-07-19T11:32:35;3.97;;;2.40;;
14698;SDS011;7439;50.804;4.602;2022-07-19T11:35:04;4.63;;;2.17;;
14698;SDS011;7439;50.804;4.602;2022-07-19T11:37:32;5.35;;;2.88;;
14698;SDS011;7439;50.804;4.602;2022-07-19T11:40:01;6.80;;;2.65;;
14698;SDS011;7439;50.804;4.602;2022-07-19T11:42:34;4.30;;;2.47;;
14698;SDS011;7439;50.804;4.602;2022-07-19T11:45:09;2.40;;;2.13;;
14698;SDS011;7439;50.804;4.602;2022-07-19T11:47:40;4.38;;;2.50;;
14698;SDS011;7439;50.804;4.602;2022-07-19T11:50:09;5.95;;;2.28;;
14698;SDS011;7439;50.804;4.602;2022-07-19T11:52:41;4.13;;;2.20;;
14698;SDS011;7439;50.804;4.602;2022-07-19T11:55:13;2.88;;;2.15;;
14698;SDS011;7439;50.804;4.602;2022-07-19T11:57:42;5.05;;;2.45;;
14698;SDS011;7439;50.804;4.602;2022-07-19T12:00:10;2.95;;;2.30;;
14698;SDS011;7439;50.804;4.602;2022-07-19T12:02:52;6.88;;;2.35;;
14698;SDS011;7439;50.804;4.602;2022-07-19T12:05:21;4.75;;;2.35;;
14698;SDS011;7439;50.804;4.602;2022-07-19T12:07:49;5.15;;;2.45;;
14698;SDS011;7439;50.804;4.602;2022-07-19T12:10:39;4.32;;;2.30;;
14698;SDS011;7439;50.804;4.602;2022-07-19T12:13:10;6.03;;;2.38;;
14698;SDS011;7439;50.804;4.602;2022-07-19T12:15:45;7.35;;;2.53;;
14698;SDS011;7439;50.804;4.602;2022-07-19T12:18:13;5.10;;;2.15;;
14698;SDS011;7439;50.804;4.602;2022-07-19T12:20:42;4.97;;;2.38;;
14698;SDS011;7439;50.804;4.602;2022-07-19T12:23:10;6.10;;;2.00;;
14698;SDS011;7439;50.804;4.602;2022-07-19T12:25:39;2.47;;;2.28;;
14698;SDS011;7439;50.804;4.602;2022-07-19T12:28:06;5.95;;;2.50;;
14698;SDS011;7439;50.804;4.602;2022-07-19T12:30:35;4.72;;;2.67;;
14698;SDS011;7439;50.804;4.602;2022-07-19T12:33:06;4.50;;;2.35;;
14698;SDS011;7439;50.804;4.602;2022-07-19T12:35:40;6.70;;;2.78;;
14698;SDS011;7439;50.804;4.602;2022-07-19T12:38:09;5.55;;;2.60;;
14698;SDS011;7439;50.804;4.602;2022-07-19T12:40:37;4.55;;;2.60;;
14698;SDS011;7439;50.804;4.602;2022-07-19T12:43:08;8.40;;;3.00;;
14698;SDS011;7439;50.804;4.602;2022-07-19T12:45:40;6.50;;;2.38;;
14698;SDS011;7439;50.804;4.602;2022-07-19T12:48:09;3.70;;;2.53;;
14698;SDS011;7439;50.804;4.602;2022-07-19T12:50:38;5.75;;;2.38;;
14698;SDS011;7439;50.804;4.602;2022-07-19T12:53:08;4.50;;;2.53;;
14698;SDS011;7439;50.804;4.602;2022-07-19T12:55:38;4.50;;;2.20;;
14698;SDS011;7439;50.804;4.602;2022-07-19T12:58:06;3.45;;;2.33;;
14698;SDS011;7439;50.804;4.602;2022-07-19T13:00:34;4.72;;;2.60;;
14698;SDS011;7439;50.804;4.602;2022-07-19T13:03:03;5.13;;;2.38;;
14698;SDS011;7439;50.804;4.602;2022-07-19T13:05:32;3.20;;;2.58;;
14698;SDS011;7439;50.804;4.602;2022-07-19T13:08:00;4.93;;;2.35;;
14698;SDS011;7439;50.804;4.602;2022-07-19T13:10:27;4.22;;;2.53;;
14698;SDS011;7439;50.804;4.602;2022-07-19T13:12:55;3.03;;;2.25;;
14698;SDS011;7439;50.804;4.602;2022-07-19T13:15:22;3.97;;;2.20;;
14698;SDS011;7439;50.804;4.602;2022-07-19T13:17:50;8.65;;;2.40;;
14698;SDS011;7439;50.804;4.602;2022-07-19T13:20:18;7.05;;;2.30;;
14698;SDS011;7439;50.804;4.602;2022-07-19T13:22:45;6.40;;;2.15;;
14698;SDS011;7439;50.804;4.602;2022-07-19T13:25:13;5.28;;;2.40;;
14698;SDS011;7439;50.804;4.602;2022-07-19T13:27:40;6.03;;;2.28;;
14698;SDS011;7439;50.804;4.602;2022-07-19T13:30:08;5.80;;;2.50;;
14698;SDS011;7439;50.804;4.602;2022-07-19T13:32:36;5.50;;;2.30;;
14698;SDS011;7439;50.804;4.602;2022-07-19T13:35:03;3.20;;;1.92;;
14698;SDS011;7439;50.804;4.602;2022-07-19T13:37:32;6.45;;;2.25;;
14698;SDS011;7439;50.804;4.602;2022-07-19T13:39:59;2.35;;;2.08;;
14698;SDS011;7439;50.804;4.602;2022-07-19T13:42:26;4.22;;;2.10;;
14698;SDS011;7439;50.804;4.602;2022-07-19T13:44:54;5.03;;;2.00;;
14698;SDS011;7439;50.804;4.602;2022-07-19T13:47:21;4.53;;;1.90;;
14698;SDS011;7439;50.804;4.602;2022-07-19T13:49:48;2.90;;;2.00;;
14698;SDS011;7439;50.804;4.602;2022-07-19T13:52:15;3.45;;;1.80;;
14698;SDS011;7439;50.804;4.602;2022-07-19T13:54:43;3.33;;;1.80;;
14698;SDS011;7439;50.804;4.602;2022-07-19T13:57:10;4.20;;;2.00;;
14698;SDS011;7439;50.804;4.602;2022-07-19T13:59:37;3.72;;;1.80;;
14698;SDS011;7439;50.804;4.602;2022-07-19T14:02:05;2.05;;;1.80;;
14698;SDS011;7439;50.804;4.602;2022-07-19T14:04:32;3.63;;;1.80;;
14698;SDS011;7439;50.804;4.602;2022-07-19T14:06:59;3.53;;;2.00;;
14698;SDS011;7439;50.804;4.602;2022-07-19T14:09:26;2.92;;;1.90;;
14698;SDS011;7439;50.804;4.602;2022-07-19T14:11:54;3.88;;;1.80;;
14698;SDS011;7439;50.804;4.602;2022-07-19T14:14:22;4.68;;;2.08;;
14698;SDS011;7439;50.804;4.602;2022-07-19T14:16:49;3.15;;;1.98;;
14698;SDS011;7439;50.804;4.602;2022-07-19T14:19:16;3.33;;;1.92;;
14698;SDS011;7439;50.804;4.602;2022-07-19T14:21:43;3.15;;;1.90;;
14698;SDS011;7439;50.804;4.602;2022-07-19T14:24:10;2.35;;;1.77;;
14698;SDS011;7439;50.804;4.602;2022-07-19T14:26:37;2.40;;;1.90;;
14698;SDS011;7439;50.804;4.602;2022-07-19T14:29:05;3.55;;;2.10;;
14698;SDS011;7439;50.804;4.602;2022-07-19T14:31:32;4.43;;;1.90;;
14698;SDS011;7439;50.804;4.602;2022-07-19T14:33:59;4.43;;;1.70;;
14698;SDS011;7439;50.804;4.602;2022-07-19T14:36:26;4.22;;;1.95;;
14698;SDS011;7439;50.804;4.602;2022-07-19T14:38:53;6.65;;;2.00;;
14698;SDS011;7439;50.804;4.602;2022-07-19T14:41:20;3.70;;;1.80;;
14698;SDS011;7439;50.804;4.602;2022-07-19T14:43:47;2.58;;;1.90;;
14698;SDS011;7439;50.804;4.602;2022-07-19T14:46:16;2.00;;;1.80;;
14698;SDS011;7439;50.804;4.602;2022-07-19T14:48:43;4.65;;;2.15;;
14698;SDS011;7439;50.804;4.602;2022-07-19T14:51:10;2.28;;;1.80;;
14698;SDS011;7439;50.804;4.602;2022-07-19T14:53:37;2.67;;;1.77;;
14698;SDS011;7439;50.804;4.602;2022-07-19T14:56:04;2.83;;;1.88;;
14698;SDS011;7439;50.804;4.602;2022-07-19T14:58:31;2.47;;;1.88;;
14698;SDS011;7439;50.804;4.602;2022-07-19T15:00:58;2.28;;;1.83;;
14698;SDS011;7439;50.804;4.602;2022-07-19T15:03:28;2.83;;;2.10;;
14698;SDS011;7439;50.804;4.602;2022-07-19T15:05:55;6.88;;;2.15;;
14698;SDS011;7439;50.804;4.602;2022-07-19T15:08:22;2.20;;;1.98;;
14698;SDS011;7439;50.804;4.602;2022-07-19T15:10:49;3.88;;;2.10;;
14698;SDS011;7439;50.804;4.602;2022-07-19T15:13:17;2.60;;;2.20;;
14698;SDS011;7439;50.804;4.602;2022-07-19T15:15:44;4.22;;;2.08;;
14698;SDS011;7439;50.804;4.602;2022-07-19T15:18:11;5.20;;;2.00;;